sensor_id;sensor_type;location;lat;lon;timestamp;pressure;altitude;pressure_sealevel;temperature;humidity
13952;BME280;39535;52.192;9.886;2022-07-12T00:00:24;101448.00;;;16.13;88.40
13952;BME280;39535;52.192;9.886;2022-07-12T00:02:51;101433.16;;;16.10;89.10
13952;BME280;39535;52.192;9.886;2022-07-12T00:05:19;101413.03;;;16.07;89.29
13952;BME280;39535;52.192;9.886;2022-07-12T00:07:45;101406.97;;;16.05;89.69
13952;BME280;39535;52.192;9.886;2022-07-12T00:10:11;101401.63;;;16.07;89.76
13952;BME280;39535;52.192;9.886;2022-07-12T00:12:39;101411.34;;;16.05;89.45
13952;BME280;39535;52.192;9.886;2022-07-12T00:15:07;101416.63;;;16.03;89.50
13952;BME280;39535;52.192;9.886;2022-07-12T00:17:34;101421.91;;;16.03;89.28
13952;BME280;39535;52.192;9.886;2022-07-12T00:20:01;101421.97;;;16.02;89.42
13952;BME280;39535;52.192;9.886;2022-07-12T00:22:29;101409.66;;;16.02;90.05
13952;BME280;39535;52.192;9.886;2022-07-12T00:24:55;101404.34;;;16.04;89.78
13952;BME280;39535;52.192;9.886;2022-07-12T00:27:21;101414.94;;;16.01;89.84
13952;BME280;39535;52.192;9.886;2022-07-12T00:29:48;101424.94;;;15.88;89.32
13952;BME280;39535;52.192;9.886;2022-07-12T00:32:14;101417.06;;;15.88;89.42
13952;BME280;39535;52.192;9.886;2022-07-12T00:34:41;101413.53;;;15.87;89.69
13952;BME280;39535;52.192;9.886;2022-07-12T00:37:07;101402.19;;;15.85;90.00
13952;BME280;39535;52.192;9.886;2022-07-12T00:39:35;101397.66;;;15.91;90.36
13952;BME280;39535;52.192;9.886;2022-07-12T00:42:02;101377.56;;;15.88;90.72
13952;BME280;39535;52.192;9.886;2022-07-12T00:44:28;101380.97;;;15.92;91.09
13952;BME280;39535;52.192;9.886;2022-07-12T00:46:56;101378.28;;;15.93;91.04
13952;BME280;39535;52.192;9.886;2022-07-12T00:49:24;101378.38;;;15.90;90.93
13952;BME280;39535;52.192;9.886;2022-07-12T00:51:50;101385.25;;;15.96;90.59
13952;BME280;39535;52.192;9.886;2022-07-12T00:54:19;101387.81;;;15.97;90.64
13952;BME280;39535;52.192;9.886;2022-07-12T00:56:47;101368.47;;;16.00;91.18
13952;BME280;39535;52.192;9.886;2022-07-12T00:59:13;101363.22;;;16.00;91.45
13952;BME280;39535;52.192;9.886;2022-07-12T01:01:41;101350.09;;;15.97;91.48
13952;BME280;39535;52.192;9.886;2022-07-12T01:04:08;101357.00;;;16.01;91.24
13952;BME280;39535;52.192;9.886;2022-07-12T01:06:35;101355.25;;;16.01;91.00
13952;BME280;39535;52.192;9.886;2022-07-12T01:09:02;101364.91;;;16.01;90.94
13952;BME280;39535;52.192;9.886;2022-07-12T01:11:28;101363.22;;;16.00;90.96
13952;BME280;39535;52.192;9.886;2022-07-12T01:13:56;101364.19;;;15.96;91.26
13952;BME280;39535;52.192;9.886;2022-07-12T01:16:24;101342.22;;;15.97;91.59
13952;BME280;39535;52.192;9.886;2022-07-12T01:18:50;101352.72;;;15.98;91.33
13952;BME280;39535;52.192;9.886;2022-07-12T01:21:19;101344.03;;;15.95;91.48
13952;BME280;39535;52.192;9.886;2022-07-12T01:23:47;101342.16;;;15.98;91.65
13952;BME280;39535;52.192;9.886;2022-07-12T01:26:15;101337.72;;;16.00;91.99
13952;BME280;39535;52.192;9.886;2022-07-12T01:28:41;101327.22;;;15.99;91.94
13952;BME280;39535;52.192;9.886;2022-07-12T01:31:08;101321.06;;;16.00;92.45
13952;BME280;39535;52.192;9.886;2022-07-12T01:33:35;101313.94;;;16.03;92.70
13952;BME280;39535;52.192;9.886;2022-07-12T01:36:01;101304.38;;;15.99;93.03
13952;BME280;39535;52.192;9.886;2022-07-12T01:38:28;101302.53;;;16.03;93.31
13952;BME280;39535;52.192;9.886;2022-07-12T01:40:56;101297.19;;;16.06;93.12
13952;BME280;39535;52.192;9.886;2022-07-12T01:43:22;101305.94;;;16.06;92.88
13952;BME280;39535;52.192;9.886;2022-07-12T01:45:49;101311.19;;;16.08;92.71
13952;BME280;39535;52.192;9.886;2022-07-12T01:48:15;101323.53;;;16.06;92.68
13952;BME280;39535;52.192;9.886;2022-07-12T01:50:42;101322.69;;;16.05;92.70
13952;BME280;39535;52.192;9.886;2022-07-12T01:53:08;101324.41;;;16.05;92.12
13952;BME280;39535;52.192;9.886;2022-07-12T01:55:36;101345.50;;;16.05;91.32
13952;BME280;39535;52.192;9.886;2022-07-12T01:58:05;101354.22;;;16.07;91.07
13952;BME280;39535;52.192;9.886;2022-07-12T02:00:32;101363.09;;;16.03;91.21
13952;BME280;39535;52.192;9.886;2022-07-12T02:02:59;101356.16;;;16.00;91.19
13952;BME280;39535;52.192;9.886;2022-07-12T02:05:25;101343.06;;;15.97;91.19
13952;BME280;39535;52.192;9.886;2022-07-12T02:07:52;101341.31;;;15.98;91.19
13952;BME280;39535;52.192;9.886;2022-07-12T02:10:19;101350.09;;;15.97;90.96
13952;BME280;39535;52.192;9.886;2022-07-12T02:12:46;101352.78;;;15.95;91.40
13952;BME280;39535;52.192;9.886;2022-07-12T02:15:13;101342.25;;;15.95;91.70
13952;BME280;39535;52.192;9.886;2022-07-12T02:17:40;101327.25;;;15.97;91.82
13952;BME280;39535;52.192;9.886;2022-07-12T02:20:09;101314.06;;;15.99;92.00
13952;BME280;39535;52.192;9.886;2022-07-12T02:22:36;101315.84;;;15.98;91.73
13952;BME280;39535;52.192;9.886;2022-07-12T02:25:03;101323.78;;;15.97;91.68
13952;BME280;39535;52.192;9.886;2022-07-12T02:27:30;101317.66;;;15.96;91.77
13952;BME280;39535;52.192;9.886;2022-07-12T02:29:56;101307.09;;;15.98;92.24
13952;BME280;39535;52.192;9.886;2022-07-12T02:32:24;101301.84;;;15.96;92.41
13952;BME280;39535;52.192;9.886;2022-07-12T02:34:50;101295.66;;;15.97;92.52
13952;BME280;39535;52.192;9.886;2022-07-12T02:37:17;101296.59;;;15.96;92.84
13952;BME280;39535;52.192;9.886;2022-07-12T02:39:43;101300.06;;;15.97;92.93
13952;BME280;39535;52.192;9.886;2022-07-12T02:42:09;101294.66;;;16.01;93.32
13952;BME280;39535;52.192;9.886;2022-07-12T02:44:36;101289.34;;;16.04;93.23
13952;BME280;39535;52.192;9.886;2022-07-12T02:47:03;101286.72;;;16.03;92.90
13952;BME280;39535;52.192;9.886;2022-07-12T02:49:30;101302.75;;;15.95;92.64
13952;BME280;39535;52.192;9.886;2022-07-12T02:51:57;101302.84;;;15.92;92.63
13952;BME280;39535;52.192;9.886;2022-07-12T02:54:23;101308.16;;;15.91;92.40
13952;BME280;39535;52.192;9.886;2022-07-12T02:56:50;101309.13;;;15.86;92.72
13952;BME280;39535;52.192;9.886;2022-07-12T02:59:16;101302.19;;;15.84;92.78
13952;BME280;39535;52.192;9.886;2022-07-12T03:01:43;101311.81;;;15.85;92.51
13952;BME280;39535;52.192;9.886;2022-07-12T03:04:09;101319.63;;;15.88;92.50
13952;BME280;39535;52.192;9.886;2022-07-12T03:06:37;101335.47;;;15.86;92.15
13952;BME280;39535;52.192;9.886;2022-07-12T03:09:04;101345.25;;;15.81;92.34
13952;BME280;39535;52.192;9.886;2022-07-12T03:11:30;101340.06;;;15.78;92.59
13952;BME280;39535;52.192;9.886;2022-07-12T03:13:56;101333.03;;;15.79;92.77
13952;BME280;39535;52.192;9.886;2022-07-12T03:16:23;101333.06;;;15.77;93.07
13952;BME280;39535;52.192;9.886;2022-07-12T03:18:49;101337.41;;;15.80;93.13
13952;BME280;39535;52.192;9.886;2022-07-12T03:21:16;101336.59;;;15.78;93.44
13952;BME280;39535;52.192;9.886;2022-07-12T03:23:43;101329.41;;;15.83;93.59
13952;BME280;39535;52.192;9.886;2022-07-12T03:26:10;101325.78;;;15.87;93.79
13952;BME280;39535;52.192;9.886;2022-07-12T03:28:36;101332.84;;;15.86;93.49
13952;BME280;39535;52.192;9.886;2022-07-12T03:31:03;101335.50;;;15.85;93.83
13952;BME280;39535;52.192;9.886;2022-07-12T03:33:29;101336.25;;;15.90;93.69
13952;BME280;39535;52.192;9.886;2022-07-12T03:35:55;101348.53;;;15.89;93.05
13952;BME280;39535;52.192;9.886;2022-07-12T03:38:22;101351.13;;;15.91;92.99
13952;BME280;39535;52.192;9.886;2022-07-12T03:40:50;101359.94;;;15.90;92.87
13952;BME280;39535;52.192;9.886;2022-07-12T03:43:16;101365.28;;;15.87;93.04
13952;BME280;39535;52.192;9.886;2022-07-12T03:45:42;101361.09;;;15.80;93.63
13952;BME280;39535;52.192;9.886;2022-07-12T03:48:10;101356.69;;;15.80;94.03
13952;BME280;39535;52.192;9.886;2022-07-12T03:50:37;101345.25;;;15.81;94.26
13952;BME280;39535;52.192;9.886;2022-07-12T03:53:03;101342.69;;;15.78;94.59
13952;BME280;39535;52.192;9.886;2022-07-12T03:55:30;101333.94;;;15.78;94.90
13952;BME280;39535;52.192;9.886;2022-07-12T03:57:58;101331.09;;;15.85;94.96
13952;BME280;39535;52.192;9.886;2022-07-12T04:00:24;101337.97;;;15.91;94.81
13952;BME280;39535;52.192;9.886;2022-07-12T04:02:50;101353.78;;;15.89;94.55
13952;BME280;39535;52.192;9.886;2022-07-12T04:05:19;101342.41;;;15.89;94.60
13952;BME280;39535;52.192;9.886;2022-07-12T04:07:45;101342.41;;;15.89;94.68
13952;BME280;39535;52.192;9.886;2022-07-12T04:10:12;101335.38;;;15.89;94.99
13952;BME280;39535;52.192;9.886;2022-07-12T04:12:40;101340.63;;;15.89;95.26
13952;BME280;39535;52.192;9.886;2022-07-12T04:15:08;101330.06;;;15.91;95.38
13952;BME280;39535;52.192;9.886;2022-07-12T04:17:35;101325.63;;;15.93;95.58
13952;BME280;39535;52.192;9.886;2022-07-12T04:20:01;101332.53;;;15.97;95.53
13952;BME280;39535;52.192;9.886;2022-07-12T04:22:28;101341.19;;;16.02;95.34
13952;BME280;39535;52.192;9.886;2022-07-12T04:24:54;101344.63;;;16.04;95.17
13952;BME280;39535;52.192;9.886;2022-07-12T04:27:21;101344.50;;;16.09;94.69
13952;BME280;39535;52.192;9.886;2022-07-12T04:29:47;101345.28;;;16.13;94.68
13952;BME280;39535;52.192;9.886;2022-07-12T04:32:15;101348.88;;;16.10;94.97
13952;BME280;39535;52.192;9.886;2022-07-12T04:34:42;101338.31;;;16.12;95.19
13952;BME280;39535;52.192;9.886;2022-07-12T04:37:08;101340.13;;;16.10;95.43
13952;BME280;39535;52.192;9.886;2022-07-12T04:39:35;101348.88;;;16.10;95.43
13952;BME280;39535;52.192;9.886;2022-07-12T04:42:02;101342.66;;;16.13;95.55
13952;BME280;39535;52.192;9.886;2022-07-12T04:44:28;101339.88;;;16.17;95.69
13952;BME280;39535;52.192;9.886;2022-07-12T04:46:55;101342.38;;;16.23;95.76
13952;BME280;39535;52.192;9.886;2022-07-12T04:49:23;101345.75;;;16.27;95.85
13952;BME280;39535;52.192;9.886;2022-07-12T04:51:49;101354.44;;;16.31;95.45
13952;BME280;39535;52.192;9.886;2022-07-12T04:54:15;101373.69;;;16.34;94.89
13952;BME280;39535;52.192;9.886;2022-07-12T04:56:42;101392.91;;;16.38;94.39
13952;BME280;39535;52.192;9.886;2022-07-12T04:59:08;101416.53;;;16.41;93.23
13952;BME280;39535;52.192;9.886;2022-07-12T05:01:35;101441.94;;;16.43;92.68
13952;BME280;39535;52.192;9.886;2022-07-12T05:04:01;101435.69;;;16.47;93.12
13952;BME280;39535;52.192;9.886;2022-07-12T05:06:29;101433.03;;;16.47;93.05
13952;BME280;39535;52.192;9.886;2022-07-12T05:08:55;101449.75;;;16.46;92.34
13952;BME280;39535;52.192;9.886;2022-07-12T05:11:23;101452.22;;;16.53;92.09
13952;BME280;39535;52.192;9.886;2022-07-12T05:13:49;101463.59;;;16.55;92.08
13952;BME280;39535;52.192;9.886;2022-07-12T05:16:16;101461.16;;;16.47;91.86
13952;BME280;39535;52.192;9.886;2022-07-12T05:18:42;101479.00;;;16.37;91.16
13952;BME280;39535;52.192;9.886;2022-07-12T05:21:08;101488.09;;;16.25;91.31
13952;BME280;39535;52.192;9.886;2022-07-12T05:23:37;101487.03;;;16.31;91.57
13952;BME280;39535;52.192;9.886;2022-07-12T05:26:04;101479.69;;;16.44;91.65
13952;BME280;39535;52.192;9.886;2022-07-12T05:28:30;101481.16;;;16.56;91.28
13952;BME280;39535;52.192;9.886;2022-07-12T05:30:57;101493.19;;;16.64;91.24
13952;BME280;39535;52.192;9.886;2022-07-12T05:33:24;101513.78;;;16.50;90.11
13952;BME280;39535;52.192;9.886;2022-07-12T05:35:50;101516.75;;;16.38;90.45
13952;BME280;39535;52.192;9.886;2022-07-12T05:38:17;101504.91;;;16.54;90.61
13952;BME280;39535;52.192;9.886;2022-07-12T05:40:45;101507.47;;;16.57;90.97
13952;BME280;39535;52.192;9.886;2022-07-12T05:43:11;101514.16;;;16.36;90.39
13952;BME280;39535;52.192;9.886;2022-07-12T05:45:39;101487.75;;;16.39;91.46
13952;BME280;39535;52.192;9.886;2022-07-12T05:48:06;101491.75;;;16.53;90.77
13952;BME280;39535;52.192;9.886;2022-07-12T05:50:33;101517.81;;;16.65;90.11
13952;BME280;39535;52.192;9.886;2022-07-12T05:52:59;101544.09;;;16.66;89.57
13952;BME280;39535;52.192;9.886;2022-07-12T05:55:45;101540.78;;;16.60;89.85
13952;BME280;39535;52.192;9.886;2022-07-12T05:58:11;101542.56;;;16.59;89.28
13952;BME280;39535;52.192;9.886;2022-07-12T06:00:38;101513.69;;;16.20;90.19
13952;BME280;39535;52.192;9.886;2022-07-12T06:03:04;101500.22;;;16.31;90.85
13952;BME280;39535;52.192;9.886;2022-07-12T06:05:31;101489.06;;;16.56;90.78
13952;BME280;39535;52.192;9.886;2022-07-12T06:07:57;101496.59;;;16.70;90.21
13952;BME280;39535;52.192;9.886;2022-07-12T06:10:24;101522.59;;;16.83;89.48
13952;BME280;39535;52.192;9.886;2022-07-12T06:12:52;101575.34;;;16.83;87.79
13952;BME280;39535;52.192;9.886;2022-07-12T06:15:18;101596.53;;;16.79;87.39
13952;BME280;39535;52.192;9.886;2022-07-12T06:17:45;101565.16;;;16.68;88.08
13952;BME280;39535;52.192;9.886;2022-07-12T06:20:13;101552.50;;;16.82;88.30
13952;BME280;39535;52.192;9.886;2022-07-12T06:22:39;101568.94;;;16.92;87.51
13952;BME280;39535;52.192;9.886;2022-07-12T06:25:07;101582.91;;;16.96;87.24
13952;BME280;39535;52.192;9.886;2022-07-12T06:27:34;101582.78;;;17.00;86.83
13952;BME280;39535;52.192;9.886;2022-07-12T06:30:02;101605.50;;;17.06;86.31
13952;BME280;39535;52.192;9.886;2022-07-12T06:32:29;101615.25;;;17.02;86.25
13952;BME280;39535;52.192;9.886;2022-07-12T06:34:55;101610.50;;;17.17;86.34
13952;BME280;39535;52.192;9.886;2022-07-12T06:37:22;101609.50;;;17.21;86.43
13952;BME280;39535;52.192;9.886;2022-07-12T06:39:48;101644.25;;;17.04;84.83
13952;BME280;39535;52.192;9.886;2022-07-12T06:42:23;101687.81;;;16.84;83.61
13952;BME280;39535;52.192;9.886;2022-07-12T06:45:04;101749.53;;;16.76;80.75
13952;BME280;39535;52.192;9.886;2022-07-12T06:47:37;101770.13;;;16.99;81.35
13952;BME280;39535;52.192;9.886;2022-07-12T06:50:04;101776.00;;;17.10;81.19
13952;BME280;39535;52.192;9.886;2022-07-12T06:52:31;101782.75;;;17.22;80.83
13952;BME280;39535;52.192;9.886;2022-07-12T06:54:57;101825.00;;;17.20;79.36
13952;BME280;39535;52.192;9.886;2022-07-12T06:57:24;101824.56;;;17.39;80.08
13952;BME280;39535;52.192;9.886;2022-07-12T06:59:52;101824.81;;;17.28;78.87
13952;BME280;39535;52.192;9.886;2022-07-12T07:02:19;101832.00;;;17.23;79.33
13952;BME280;39535;52.192;9.886;2022-07-12T07:04:46;101841.97;;;17.10;77.69
13952;BME280;39535;52.192;9.886;2022-07-12T07:07:12;101851.66;;;17.10;78.83
13952;BME280;39535;52.192;9.886;2022-07-12T07:09:39;101847.22;;;17.10;78.39
13952;BME280;39535;52.192;9.886;2022-07-12T07:12:06;101876.22;;;17.12;78.04
13952;BME280;39535;52.192;9.886;2022-07-12T07:14:33;101902.91;;;16.99;76.88
13952;BME280;39535;52.192;9.886;2022-07-12T07:16:59;101902.50;;;17.16;76.79
13952;BME280;39535;52.192;9.886;2022-07-12T07:19:27;101892.56;;;17.27;77.15
13952;BME280;39535;52.192;9.886;2022-07-12T07:21:54;101925.66;;;17.05;76.06
13952;BME280;39535;52.192;9.886;2022-07-12T07:24:20;101900.69;;;17.18;77.03
13952;BME280;39535;52.192;9.886;2022-07-12T07:26:47;101888.31;;;17.22;77.16
13952;BME280;39535;52.192;9.886;2022-07-12T07:29:13;101879.81;;;17.46;77.18
13952;BME280;39535;52.192;9.886;2022-07-12T07:31:58;101890.13;;;17.56;76.48
13952;BME280;39535;52.192;9.886;2022-07-12T07:34:24;101902.94;;;17.35;75.97
13952;BME280;39535;52.192;9.886;2022-07-12T07:36:52;101914.94;;;17.13;76.15
13952;BME280;39535;52.192;9.886;2022-07-12T07:39:19;101864.16;;;17.01;77.68
13952;BME280;39535;52.192;9.886;2022-07-12T07:41:45;101835.06;;;17.04;78.29
13952;BME280;39535;52.192;9.886;2022-07-12T07:44:12;101820.63;;;17.21;78.46
13952;BME280;39535;52.192;9.886;2022-07-12T07:46:38;101878.88;;;17.12;76.48
13952;BME280;39535;52.192;9.886;2022-07-12T07:49:04;101891.53;;;16.96;76.26
13952;BME280;39535;52.192;9.886;2022-07-12T07:51:31;101892.66;;;16.85;76.88
13952;BME280;39535;52.192;9.886;2022-07-12T07:53:59;101885.41;;;16.95;76.41
13952;BME280;39535;52.192;9.886;2022-07-12T07:56:25;101916.09;;;16.99;75.62
13952;BME280;39535;52.192;9.886;2022-07-12T07:58:51;101943.13;;;17.11;74.01
13952;BME280;39535;52.192;9.886;2022-07-12T08:01:18;101966.50;;;17.26;74.21
13952;BME280;39535;52.192;9.886;2022-07-12T08:03:45;101952.25;;;17.35;74.39
13952;BME280;39535;52.192;9.886;2022-07-12T08:06:11;101932.78;;;17.39;75.47
13952;BME280;39535;52.192;9.886;2022-07-12T08:08:38;101895.56;;;17.50;75.50
13952;BME280;39535;52.192;9.886;2022-07-12T08:11:05;101938.25;;;17.31;74.54
13952;BME280;39535;52.192;9.886;2022-07-12T08:13:32;101937.59;;;17.21;75.43
13952;BME280;39535;52.192;9.886;2022-07-12T08:15:58;101898.66;;;17.31;76.61
13952;BME280;39535;52.192;9.886;2022-07-12T08:18:25;101924.94;;;17.36;74.53
13952;BME280;39535;52.192;9.886;2022-07-12T08:20:51;101901.53;;;17.58;75.49
13952;BME280;39535;52.192;9.886;2022-07-12T08:23:18;101895.97;;;17.70;75.13
13952;BME280;39535;52.192;9.886;2022-07-12T08:25:44;101902.72;;;17.80;74.38
13952;BME280;39535;52.192;9.886;2022-07-12T08:28:12;101954.44;;;17.91;73.41
13952;BME280;39535;52.192;9.886;2022-07-12T08:30:38;101936.63;;;17.99;73.95
13952;BME280;39535;52.192;9.886;2022-07-12T08:33:05;101984.22;;;17.97;72.73
13952;BME280;39535;52.192;9.886;2022-07-12T08:35:31;101978.59;;;18.11;72.41
13952;BME280;39535;52.192;9.886;2022-07-12T08:37:58;101988.09;;;18.18;71.66
13952;BME280;39535;52.192;9.886;2022-07-12T08:40:24;102017.03;;;18.23;71.25
13952;BME280;39535;52.192;9.886;2022-07-12T08:42:51;102028.44;;;18.25;71.40
13952;BME280;39535;52.192;9.886;2022-07-12T08:45:18;102040.97;;;18.18;69.59
13952;BME280;39535;52.192;9.886;2022-07-12T08:47:45;102076.13;;;18.22;68.51
13952;BME280;39535;52.192;9.886;2022-07-12T08:50:13;102114.03;;;18.19;69.42
13952;BME280;39535;52.192;9.886;2022-07-12T08:52:43;102089.25;;;18.25;69.30
13952;BME280;39535;52.192;9.886;2022-07-12T08:55:16;102108.44;;;18.33;68.42
13952;BME280;39535;52.192;9.886;2022-07-12T08:57:43;102109.06;;;18.43;68.32
13952;BME280;39535;52.192;9.886;2022-07-12T09:00:11;102089.50;;;18.50;68.39
13952;BME280;39535;52.192;9.886;2022-07-12T09:02:47;102118.47;;;18.55;67.54
13952;BME280;39535;52.192;9.886;2022-07-12T09:05:14;102121.88;;;18.60;68.84
13952;BME280;39535;52.192;9.886;2022-07-12T09:07:41;102102.94;;;18.42;68.42
13952;BME280;39535;52.192;9.886;2022-07-12T09:10:10;102104.63;;;18.45;68.45
13952;BME280;39535;52.192;9.886;2022-07-12T09:12:37;102058.41;;;18.60;69.37
13952;BME280;39535;52.192;9.886;2022-07-12T09:15:14;102051.88;;;18.73;68.41
13952;BME280;39535;52.192;9.886;2022-07-12T09:17:41;102064.88;;;18.82;68.00
13952;BME280;39535;52.192;9.886;2022-07-12T09:20:14;102052.25;;;18.92;67.86
13952;BME280;39535;52.192;9.886;2022-07-12T09:22:51;102074.03;;;19.02;68.44
13952;BME280;39535;52.192;9.886;2022-07-12T09:25:18;102072.00;;;19.12;68.19
13952;BME280;39535;52.192;9.886;2022-07-12T09:27:50;102089.72;;;19.10;67.06
13952;BME280;39535;52.192;9.886;2022-07-12T09:30:18;102103.59;;;19.18;67.88
13952;BME280;39535;52.192;9.886;2022-07-12T09:32:53;102142.28;;;19.23;65.92
13952;BME280;39535;52.192;9.886;2022-07-12T09:35:39;102190.78;;;19.24;64.41
13952;BME280;39535;52.192;9.886;2022-07-12T09:38:24;102246.13;;;19.35;63.19
13952;BME280;39535;52.192;9.886;2022-07-12T09:40:51;102230.78;;;19.46;63.88
13952;BME280;39535;52.192;9.886;2022-07-12T09:43:18;102199.81;;;19.50;63.58
13952;BME280;39535;52.192;9.886;2022-07-12T09:45:46;102202.19;;;19.59;63.72
13952;BME280;39535;52.192;9.886;2022-07-12T09:48:13;102201.34;;;19.58;63.33
13952;BME280;39535;52.192;9.886;2022-07-12T09:50:46;102212.50;;;19.68;62.84
13952;BME280;39535;52.192;9.886;2022-07-12T09:53:18;102177.84;;;19.77;65.47
13952;BME280;39535;52.192;9.886;2022-07-12T09:55:50;102160.81;;;19.86;64.42
13952;BME280;39535;52.192;9.886;2022-07-12T09:58:22;102139.31;;;19.95;64.65
13952;BME280;39535;52.192;9.886;2022-07-12T10:00:50;102183.56;;;19.93;63.05
13952;BME280;39535;52.192;9.886;2022-07-12T10:03:20;102177.97;;;20.02;63.49
13952;BME280;39535;52.192;9.886;2022-07-12T10:05:50;102155.41;;;20.17;63.74
13952;BME280;39535;52.192;9.886;2022-07-12T10:08:19;102196.78;;;20.23;62.82
13952;BME280;39535;52.192;9.886;2022-07-12T10:10:46;102193.00;;;20.32;61.60
13952;BME280;39535;52.192;9.886;2022-07-12T10:13:13;102241.81;;;20.24;58.86
13952;BME280;39535;52.192;9.886;2022-07-12T10:15:40;102272.56;;;20.32;59.09
13952;BME280;39535;52.192;9.886;2022-07-12T10:18:15;102302.28;;;20.41;58.70
13952;BME280;39535;52.192;9.886;2022-07-12T10:20:42;102300.19;;;20.53;58.75
13952;BME280;39535;52.192;9.886;2022-07-12T10:23:30;102323.09;;;20.55;57.38
13952;BME280;39535;52.192;9.886;2022-07-12T10:26:00;102299.56;;;20.74;59.77
13952;BME280;39535;52.192;9.886;2022-07-12T10:28:54;102257.75;;;20.81;59.26
13952;BME280;39535;52.192;9.886;2022-07-12T10:31:23;102243.94;;;20.98;58.47
13952;BME280;39535;52.192;9.886;2022-07-12T10:33:59;102305.59;;;21.06;57.72
13952;BME280;39535;52.192;9.886;2022-07-12T10:36:25;102306.81;;;21.22;56.90
13952;BME280;39535;52.192;9.886;2022-07-12T10:39:11;102316.16;;;21.34;56.92
13952;BME280;39535;52.192;9.886;2022-07-12T10:41:38;102316.25;;;21.33;55.63
13952;BME280;39535;52.192;9.886;2022-07-12T10:44:07;102326.69;;;21.37;56.20
13952;BME280;39535;52.192;9.886;2022-07-12T10:46:33;102346.91;;;21.43;55.74
13952;BME280;39535;52.192;9.886;2022-07-12T10:49:22;102314.78;;;21.51;55.50
13952;BME280;39535;52.192;9.886;2022-07-12T10:55:17;102347.34;;;21.56;53.45
13952;BME280;39535;52.192;9.886;2022-07-12T10:57:46;102363.91;;;21.64;53.91
13952;BME280;39535;52.192;9.886;2022-07-12T11:00:16;102341.00;;;21.85;53.64
13952;BME280;39535;52.192;9.886;2022-07-12T11:02:42;102345.19;;;21.92;53.16
13952;BME280;39535;52.192;9.886;2022-07-12T11:05:09;102366.53;;;21.91;53.77
13952;BME280;39535;52.192;9.886;2022-07-12T11:07:36;102328.66;;;22.08;53.58
13952;BME280;39535;52.192;9.886;2022-07-12T11:10:03;102342.53;;;22.16;52.94
13952;BME280;39535;52.192;9.886;2022-07-12T11:12:32;102338.25;;;22.37;53.82
13952;BME280;39535;52.192;9.886;2022-07-12T11:14:59;102370.13;;;22.38;52.86
13952;BME280;39535;52.192;9.886;2022-07-12T11:17:26;102343.16;;;22.48;52.09
13952;BME280;39535;52.192;9.886;2022-07-12T11:20:03;102350.78;;;22.57;50.76
13952;BME280;39535;52.192;9.886;2022-07-12T11:22:31;102423.00;;;22.48;50.17
13952;BME280;39535;52.192;9.886;2022-07-12T11:24:58;102445.25;;;22.45;49.03
13952;BME280;39535;52.192;9.886;2022-07-12T11:27:25;102444.94;;;22.54;50.66
13952;BME280;39535;52.192;9.886;2022-07-12T11:30:00;102374.41;;;22.88;49.83
13952;BME280;39535;52.192;9.886;2022-07-12T11:32:34;102413.59;;;22.85;48.45
13952;BME280;39535;52.192;9.886;2022-07-12T11:35:01;102413.78;;;23.26;49.54
13952;BME280;39535;52.192;9.886;2022-07-12T11:37:27;102411.66;;;23.56;47.56
13952;BME280;39535;52.192;9.886;2022-07-12T11:39:55;102446.38;;;24.17;47.04
13952;BME280;39535;52.192;9.886;2022-07-12T11:42:22;102499.47;;;24.65;42.87
13952;BME280;39535;52.192;9.886;2022-07-12T11:44:52;102563.84;;;25.93;42.78
13952;BME280;39535;52.192;9.886;2022-07-12T11:47:21;102614.59;;;26.66;38.49
13952;BME280;39535;52.192;9.886;2022-07-12T11:49:49;102640.19;;;26.37;36.27
13952;BME280;39535;52.192;9.886;2022-07-12T11:52:17;102626.66;;;27.41;35.07
13952;BME280;39535;52.192;9.886;2022-07-12T11:54:44;102688.06;;;27.79;36.20
13952;BME280;39535;52.192;9.886;2022-07-12T11:57:11;102648.59;;;29.60;34.67
13952;BME280;39535;52.192;9.886;2022-07-12T11:59:38;102655.06;;;28.55;34.17
13952;BME280;39535;52.192;9.886;2022-07-12T12:02:06;102616.59;;;29.97;33.87
13952;BME280;39535;52.192;9.886;2022-07-12T12:04:45;102681.78;;;29.17;32.72
13952;BME280;39535;52.192;9.886;2022-07-12T12:07:12;102621.56;;;28.30;33.86
13952;BME280;39535;52.192;9.886;2022-07-12T12:10:00;102612.81;;;29.16;34.28
13952;BME280;39535;52.192;9.886;2022-07-12T12:12:27;102607.47;;;29.99;33.84
13952;BME280;39535;52.192;9.886;2022-07-12T12:14:54;102598.28;;;29.04;34.34
13952;BME280;39535;52.192;9.886;2022-07-12T12:17:20;102560.97;;;30.48;34.16
13952;BME280;39535;52.192;9.886;2022-07-12T12:19:48;102572.13;;;30.57;34.15
13952;BME280;39535;52.192;9.886;2022-07-12T12:22:28;102594.63;;;30.81;32.59
13952;BME280;39535;52.192;9.886;2022-07-12T12:24:58;102579.78;;;31.38;32.09
13952;BME280;39535;52.192;9.886;2022-07-12T12:27:25;102570.81;;;30.75;31.58
13952;BME280;39535;52.192;9.886;2022-07-12T12:29:51;102552.44;;;29.76;32.28
13952;BME280;39535;52.192;9.886;2022-07-12T12:32:18;102536.63;;;30.37;33.74
13952;BME280;39535;52.192;9.886;2022-07-12T12:35:07;102508.19;;;31.45;32.35
13952;BME280;39535;52.192;9.886;2022-07-12T12:37:33;102492.16;;;31.91;30.16
13952;BME280;39535;52.192;9.886;2022-07-12T12:40:00;102569.00;;;30.88;32.34
13952;BME280;39535;52.192;9.886;2022-07-12T12:42:27;102513.63;;;30.06;31.68
13952;BME280;39535;52.192;9.886;2022-07-12T12:44:54;102494.75;;;30.83;33.12
13952;BME280;39535;52.192;9.886;2022-07-12T12:47:20;102477.81;;;29.91;32.87
13952;BME280;39535;52.192;9.886;2022-07-12T12:50:00;102472.56;;;29.49;34.62
13952;BME280;39535;52.192;9.886;2022-07-12T12:52:29;102414.66;;;29.02;34.22
13952;BME280;39535;52.192;9.886;2022-07-12T12:54:57;102397.69;;;28.87;34.10
13952;BME280;39535;52.192;9.886;2022-07-12T12:57:24;102414.09;;;27.38;37.19